createdAt,value
2023-03-02T00:04:48.378Z,1.35
2023-03-02T00:10:10.332Z,1.27
2023-03-02T00:15:31.025Z,1.19
2023-03-02T00:20:51.928Z,1.08
2023-03-02T00:26:12.467Z,1.11
2023-03-02T00:31:34.223Z,1.02
2023-03-02T00:36:54.806Z,1.01
2023-03-02T00:42:15.702Z,1.05
2023-03-02T00:47:37.399Z,1.03
2023-03-02T00:52:58.191Z,1.09
2023-03-02T00:58:19.024Z,1.11
2023-03-02T01:03:40.203Z,1.18
2023-03-02T01:09:01.811Z,1.26
2023-03-02T01:14:23.052Z,1.25
2023-03-02T01:19:44.046Z,1.24
2023-03-02T01:25:05.517Z,1.19
2023-03-02T01:30:26.443Z,1.20
2023-03-02T01:35:47.891Z,1.21
2023-03-02T01:41:08.740Z,1.28
2023-03-02T01:46:35.261Z,1.34
2023-03-02T01:51:56.814Z,1.32
2023-03-02T01:57:23.915Z,1.20
2023-03-02T02:02:45.522Z,1.29
2023-03-02T02:08:07.536Z,1.18
2023-03-02T02:13:28.745Z,1.18
2023-03-02T02:18:49.560Z,0.97
2023-03-02T02:24:16.211Z,0.88
2023-03-02T02:29:47.446Z,0.85
2023-03-02T02:35:22.100Z,0.86
2023-03-02T02:40:51.746Z,0.88
2023-03-02T02:46:15.474Z,0.93
2023-03-02T02:51:37.170Z,0.91
2023-03-02T02:56:59.652Z,0.92
2023-03-02T03:02:27.888Z,1.01
2023-03-02T03:07:49.726Z,1.11
2023-03-02T03:13:12.455Z,1.13
2023-03-02T03:18:33.257Z,1.20
2023-03-02T03:23:54.556Z,1.08
2023-03-02T03:29:17.460Z,1.15
2023-03-02T03:34:41.012Z,1.10
2023-03-02T03:40:09.896Z,0.81
2023-03-02T03:45:33.478Z,0.80
2023-03-02T03:50:54.127Z,0.74
2023-03-02T03:56:15.425Z,0.66
2023-03-02T04:01:38.058Z,0.67
2023-03-02T04:06:59.733Z,0.59
2023-03-02T04:12:20.751Z,0.56
2023-03-02T04:17:45.717Z,0.53
2023-03-02T04:23:09.256Z,0.43
2023-03-02T04:28:29.988Z,0.28
2023-03-02T04:33:52.262Z,0.23
2023-03-02T04:39:16.815Z,0.17
2023-03-02T04:44:42.452Z,0.04
2023-03-02T04:50:03.499Z,0.05
2023-03-02T04:55:26.087Z,-0.01
2023-03-02T05:00:46.941Z,0.12
2023-03-02T05:06:08.392Z,0.11
2023-03-02T05:11:29.485Z,-0.03
2023-03-02T05:16:50.278Z,-0.16
2023-03-02T05:22:11.140Z,-0.16
2023-03-02T05:27:31.982Z,-0.20
2023-03-02T05:32:53.130Z,-0.10
2023-03-02T05:38:14.801Z,-0.14
2023-03-02T05:43:36.438Z,-0.40
2023-03-02T05:48:57.714Z,-0.48
2023-03-02T05:54:18.735Z,-0.44
2023-03-02T05:59:39.765Z,-0.25
2023-03-02T06:05:00.509Z,0.07
2023-03-02T06:10:21.361Z,0.19
2023-03-02T06:15:43.199Z,0.34
2023-03-02T06:21:04.427Z,0.50
2023-03-02T06:26:25.628Z,0.51
2023-03-02T06:31:46.683Z,0.54
2023-03-02T06:37:07.418Z,0.62
2023-03-02T06:42:28.847Z,0.78
2023-03-02T06:47:50.042Z,1.07
2023-03-02T06:53:10.740Z,1.12
2023-03-02T06:58:31.416Z,1.02
2023-03-02T07:03:52.177Z,1.26
2023-03-02T07:09:12.836Z,1.23
2023-03-02T07:14:36.368Z,1.46
2023-03-02T07:19:57.141Z,1.52
2023-03-02T07:25:18.034Z,1.50
2023-03-02T07:30:38.720Z,1.67
2023-03-02T07:35:59.510Z,1.88
2023-03-02T07:41:20.079Z,2.03
2023-03-02T07:46:41.080Z,2.29
2023-03-02T07:52:02.958Z,2.39
2023-03-02T07:57:23.939Z,2.53
2023-03-02T08:02:45.210Z,2.58
2023-03-02T08:08:06.194Z,2.66
2023-03-02T08:13:27.086Z,2.84
2023-03-02T08:18:47.913Z,3.03
2023-03-02T08:24:10.262Z,3.19
2023-03-02T08:29:31.216Z,3.45
2023-03-02T08:34:52.564Z,3.61
2023-03-02T08:40:13.304Z,3.70
2023-03-02T08:45:34.940Z,3.76
2023-03-02T08:51:03.371Z,3.86
2023-03-02T08:56:27.358Z,4.01
2023-03-02T09:01:48.357Z,4.16
2023-03-02T09:07:09.802Z,4.37
2023-03-02T09:12:30.525Z,4.54
2023-03-02T09:17:51.299Z,4.73
2023-03-02T09:23:13.703Z,4.84
2023-03-02T09:28:36.274Z,4.99
2023-03-02T09:33:57.283Z,5.01
2023-03-02T09:39:19.489Z,4.96
2023-03-02T09:45:01.933Z,4.90
2023-03-02T09:50:34.171Z,4.83
2023-03-02T09:56:00.266Z,4.80
2023-03-02T10:01:30.509Z,4.79
2023-03-02T10:07:01.443Z,4.89
2023-03-02T10:12:40.796Z,4.88
2023-03-02T10:18:23.473Z,4.92
2023-03-02T10:24:07.888Z,4.96
2023-03-02T10:29:49.075Z,4.97
2023-03-02T10:35:19.393Z,5.00
2023-03-02T10:40:42.321Z,5.11
2023-03-02T10:46:07.637Z,5.27
2023-03-02T10:51:31.213Z,5.39
2023-03-02T10:56:55.229Z,5.37
2023-03-02T11:02:24.717Z,5.30
2023-03-02T11:08:17.357Z,5.38
2023-03-02T11:13:39.548Z,5.47
2023-03-02T11:19:29.903Z,5.71
2023-03-02T11:24:56.159Z,5.82
2023-03-02T11:30:20.408Z,5.74
2023-03-02T11:36:06.618Z,5.76
2023-03-02T11:41:33.874Z,5.94
2023-03-02T11:47:01.260Z,6.12
2023-03-02T11:52:24.918Z,6.09
2023-03-02T11:57:50.778Z,6.21
2023-03-02T12:03:24.600Z,6.25
2023-03-02T12:08:46.888Z,6.32
2023-03-02T12:14:28.920Z,6.37
2023-03-02T12:19:50.967Z,6.48
2023-03-02T12:25:21.476Z,6.64
2023-03-02T12:30:42.298Z,6.67
2023-03-02T12:36:16.719Z,6.80
2023-03-02T12:42:13.823Z,6.82
2023-03-02T12:47:35.336Z,6.80
2023-03-02T12:53:01.860Z,6.82
2023-03-02T12:58:25.941Z,6.84
2023-03-02T13:03:48.728Z,6.91
2023-03-02T13:09:15.234Z,7.01
2023-03-02T13:14:35.962Z,7.12
2023-03-02T13:20:03.285Z,7.23
2023-03-02T13:25:31.732Z,7.29
2023-03-02T13:30:58.110Z,7.20
2023-03-02T13:36:23.606Z,7.36
2023-03-02T13:41:56.584Z,7.37
2023-03-02T13:47:24.017Z,7.36
2023-03-02T13:52:45.018Z,7.43
2023-03-02T13:58:13.546Z,7.45
2023-03-02T14:03:34.104Z,7.44
2023-03-02T14:08:54.869Z,7.44
2023-03-02T14:14:22.737Z,7.47
2023-03-02T14:19:43.472Z,7.46
2023-03-02T14:25:04.376Z,7.46
2023-03-02T14:30:25.298Z,7.43
2023-03-02T14:35:46.684Z,7.46
2023-03-02T14:41:07.521Z,7.41
2023-03-02T14:46:28.274Z,7.50
2023-03-02T14:52:18.019Z,7.50
2023-03-02T14:57:39.110Z,7.44
2023-03-02T15:03:00.036Z,7.37
2023-03-02T15:08:22.420Z,7.35
2023-03-02T15:13:45.679Z,7.29
2023-03-02T15:19:06.925Z,7.22
2023-03-02T15:24:27.790Z,7.20
2023-03-02T15:29:48.598Z,7.27
2023-03-02T15:35:09.932Z,7.21
2023-03-02T15:40:30.787Z,7.11
2023-03-02T15:45:51.520Z,7.01
2023-03-02T15:51:12.316Z,6.98
2023-03-02T15:56:43.736Z,6.86
2023-03-02T16:02:05.290Z,6.78
2023-03-02T16:07:26.587Z,6.71
2023-03-02T16:12:47.255Z,6.65
2023-03-02T16:18:09.764Z,6.52
2023-03-02T16:23:30.670Z,6.36
2023-03-02T16:28:51.400Z,6.30
2023-03-02T16:34:13.102Z,6.27
2023-03-02T16:39:34.198Z,6.20
2023-03-02T16:44:54.920Z,6.17
2023-03-02T16:50:17.058Z,6.12
2023-03-02T16:55:38.082Z,6.07
2023-03-02T17:00:58.912Z,6.02
2023-03-02T17:06:22.729Z,5.95
2023-03-02T17:11:43.715Z,5.91
2023-03-02T17:17:04.669Z,6.11
2023-03-02T17:22:25.490Z,6.51
2023-03-02T17:27:46.361Z,6.19
2023-03-02T17:33:07.676Z,5.95
2023-03-02T17:38:28.487Z,5.73
2023-03-02T17:43:49.090Z,5.60
2023-03-02T17:49:09.894Z,5.47
2023-03-02T17:54:30.668Z,5.33
2023-03-02T17:59:51.795Z,5.29
2023-03-02T18:05:13.456Z,5.15
2023-03-02T18:10:34.633Z,5.26
2023-03-02T18:15:55.489Z,5.29
2023-03-02T18:21:16.628Z,5.23
2023-03-02T18:26:37.692Z,5.08
2023-03-02T18:31:59.630Z,5.04
2023-03-02T18:37:20.958Z,4.98
2023-03-02T18:42:42.094Z,4.96
2023-03-02T18:48:03.294Z,4.92
2023-03-02T18:53:24.609Z,4.87
2023-03-02T18:58:46.124Z,4.99
2023-03-02T19:04:07.169Z,4.97
2023-03-02T19:09:28.600Z,4.69
2023-03-02T19:14:49.639Z,4.52
2023-03-02T19:20:16.903Z,4.55
2023-03-02T19:25:38.751Z,4.48
2023-03-02T19:31:06.838Z,4.35
2023-03-02T19:36:28.000Z,4.30
2023-03-02T19:41:48.739Z,4.08
2023-03-02T19:47:09.489Z,3.99
2023-03-02T19:52:30.857Z,3.74
2023-03-02T19:57:59.592Z,3.68
2023-03-02T20:03:20.840Z,3.63
2023-03-02T20:08:42.123Z,3.63
2023-03-02T20:14:02.638Z,3.59
2023-03-02T20:19:23.456Z,3.66
2023-03-02T20:24:44.594Z,3.82
2023-03-02T20:30:10.315Z,3.95
2023-03-02T20:35:33.106Z,3.80
2023-03-02T20:40:54.193Z,3.83
2023-03-02T20:46:30.417Z,3.84
2023-03-02T20:51:54.755Z,3.82
2023-03-02T20:57:18.262Z,3.78
2023-03-02T21:02:39.325Z,3.73
2023-03-02T21:08:00.810Z,3.87
2023-03-02T21:13:22.571Z,4.02
2023-03-02T21:18:43.886Z,3.83
2023-03-02T21:24:05.011Z,3.68
2023-03-02T21:29:26.979Z,3.48
2023-03-02T21:34:47.875Z,3.19
2023-03-02T21:40:14.726Z,3.25
2023-03-02T21:45:37.082Z,3.24
2023-03-02T21:50:58.782Z,3.25
2023-03-02T21:56:22.457Z,3.27
2023-03-02T22:01:43.992Z,3.25
2023-03-02T22:07:04.906Z,3.15
2023-03-02T22:12:25.853Z,3.12
2023-03-02T22:17:47.099Z,2.95
2023-03-02T22:23:21.137Z,2.72
2023-03-02T22:28:41.962Z,2.51
2023-03-02T22:34:13.177Z,2.37
2023-03-02T22:39:34.173Z,2.34
2023-03-02T22:45:21.985Z,2.40
2023-03-02T22:50:45.595Z,2.52
2023-03-02T22:56:21.182Z,2.48
2023-03-02T23:01:44.744Z,2.29
2023-03-02T23:07:16.748Z,2.34
2023-03-02T23:12:46.728Z,2.18
2023-03-02T23:18:29.567Z,2.14
2023-03-02T23:23:51.109Z,2.19
2023-03-02T23:29:12.208Z,2.12
2023-03-02T23:34:33.299Z,2.14
2023-03-02T23:39:53.976Z,2.22
2023-03-02T23:45:16.005Z,2.32
2023-03-02T23:50:37.203Z,2.40
2023-03-02T23:55:58.078Z,2.26
